Time;durP1;ratioP1;P1;durP2;ratioP2;P2;SDS_P1;SDS_P2;PMS_P1;PMS_P2;Temp;Humidity;BMP_temperature;BMP_pressure;BME280_temperature;BME280_humidity;BME280_pressure;Samples;Min_cycle;Max_cycle;Signal;HPM_P1;HPM_P2
2022/08/31 00:05:45;;;;;;;0.73;0.40;;;13.70;99.90;;;;;;4873885;29;20246;-51
2022/08/31 00:08:13;;;;;;;0.50;0.47;;;13.70;99.90;;;;;;4871086;29;20233;-52
2022/08/31 00:10:44;;;;;;;1.47;0.60;;;13.70;99.90;;;;;;4872518;29;20695;-51
2022/08/31 00:13:13;;;;;;;0.50;0.50;;;13.70;99.90;;;;;;4873806;29;20309;-52
2022/08/31 00:15:43;;;;;;;0.70;0.40;;;13.60;99.90;;;;;;4873527;29;20240;-52
2022/08/31 00:18:11;;;;;;;1.70;0.53;;;13.60;99.90;;;;;;4871165;29;20226;-51
2022/08/31 00:20:40;;;;;;;0.60;0.50;;;13.60;99.90;;;;;;4871777;29;20249;-52
2022/08/31 00:23:10;;;;;;;0.90;0.50;;;13.60;99.90;;;;;;4872193;29;20233;-52
2022/08/31 00:25:40;;;;;;;0.50;0.50;;;13.50;99.90;;;;;;4871857;29;20316;-50
2022/08/31 00:28:09;;;;;;;0.87;0.50;;;13.50;99.90;;;;;;4871772;29;20527;-51
2022/08/31 00:30:37;;;;;;;1.33;0.50;;;13.50;99.90;;;;;;4853757;29;20248;-51
2022/08/31 00:33:08;;;;;;;0.60;0.60;;;13.50;99.90;;;;;;4872256;29;20244;-51
2022/08/31 00:35:38;;;;;;;1.13;0.70;;;13.50;99.90;;;;;;4854222;29;20237;-52
2022/08/31 00:38:06;;;;;;;0.93;0.50;;;13.50;99.90;;;;;;4871371;29;20678;-51
2022/08/31 00:40:36;;;;;;;0.63;0.40;;;13.40;99.90;;;;;;4871140;29;20337;-49
2022/08/31 00:43:13;;;;;;;1.10;0.70;;;13.40;99.90;;;;;;4852758;29;20233;-50
2022/08/31 00:45:41;;;;;;;0.97;0.60;;;13.40;99.90;;;;;;4871824;29;20314;-50
2022/08/31 00:48:10;;;;;;;1.33;0.60;;;13.40;99.90;;;;;;4872706;29;20271;-51
2022/08/31 00:50:46;;;;;;;1.10;0.60;;;13.40;99.90;;;;;;5083533;27;20679;-52
2022/08/31 00:53:15;;;;;;;2.00;0.60;;;13.30;99.90;;;;;;5083110;28;20577;-51
2022/08/31 00:55:43;;;;;;;1.67;0.70;;;13.30;99.90;;;;;;5086349;28;20682;-51
2022/08/31 00:58:12;;;;;;;1.40;0.60;;;13.30;99.90;;;;;;5082522;28;20601;-50
2022/08/31 01:00:43;;;;;;;1.07;0.70;;;13.30;99.90;;;;;;5081435;28;20253;-49
2022/08/31 01:03:11;;;;;;;0.90;0.67;;;13.30;99.90;;;;;;5075627;28;20690;-51
2022/08/31 01:05:40;;;;;;;0.90;0.70;;;13.20;99.90;;;;;;5107731;28;20733;-48
2022/08/31 01:08:09;;;;;;;0.50;0.50;;;13.20;99.90;;;;;;5074177;28;20306;-51
2022/08/31 01:10:42;;;;;;;0.80;0.53;;;13.20;99.90;;;;;;5074759;28;20353;-52
2022/08/31 01:13:11;;;;;;;1.23;0.70;;;13.20;99.90;;;;;;5072677;28;20233;-51
2022/08/31 01:15:47;;;;;;;0.80;0.60;;;13.10;99.90;;;;;;5056896;28;20223;-51
2022/08/31 01:18:23;;;;;;;1.10;0.67;;;13.10;99.90;;;;;;5054555;28;20385;-51
2022/08/31 01:21:01;;;;;;;1.37;0.90;;;13.10;99.90;;;;;;5053202;28;21207;-50
2022/08/31 01:23:33;;;;;;;0.83;0.80;;;13.10;99.90;;;;;;5055096;28;20239;-51
2022/08/31 01:26:03;;;;;;;0.60;0.60;;;13.00;99.90;;;;;;5052020;28;20261;-51
2022/08/31 01:28:31;;;;;;;1.47;0.70;;;13.00;99.90;;;;;;5053449;28;20310;-51
2022/08/31 01:31:03;;;;;;;1.83;0.70;;;13.00;99.90;;;;;;5052342;28;20254;-49
2022/08/31 01:33:35;;;;;;;0.60;0.60;;;13.00;99.90;;;;;;5053445;28;20301;-51
2022/08/31 01:36:04;;;;;;;1.03;0.60;;;13.00;99.90;;;;;;5055138;28;20672;-49
2022/08/31 01:38:35;;;;;;;0.57;0.57;;;12.90;99.90;;;;;;5084734;28;20223;-50
2022/08/31 01:41:04;;;;;;;0.50;0.50;;;12.90;99.90;;;;;;5054364;28;20317;-52
2022/08/31 01:43:33;;;;;;;1.13;0.60;;;12.90;99.90;;;;;;5086920;28;20223;-52
2022/08/31 01:46:02;;;;;;;0.60;0.60;;;12.90;99.90;;;;;;5053894;28;20720;-51
2022/08/31 01:48:32;;;;;;;0.97;0.60;;;12.90;99.90;;;;;;5051217;28;20226;-53
2022/08/31 01:51:02;;;;;;;0.80;0.67;;;12.80;99.90;;;;;;5052915;28;20238;-51
2022/08/31 01:53:31;;;;;;;0.67;0.67;;;12.80;99.90;;;;;;5053052;28;20223;-51
2022/08/31 01:56:01;;;;;;;1.00;0.60;;;12.80;99.90;;;;;;5053642;28;20230;-49
2022/08/31 01:58:29;;;;;;;1.63;0.80;;;12.80;99.90;;;;;;5052902;28;20237;-52
2022/08/31 02:01:32;;;;;;;0.87;0.87;;;12.80;99.90;;;;;;5030959;28;20271;-52
2022/08/31 02:04:03;;;;;;;0.90;0.60;;;12.80;99.90;;;;;;5039450;28;20278;-49
2022/08/31 02:06:32;;;;;;;1.03;0.57;;;12.70;99.90;;;;;;5040234;28;20234;-49
2022/08/31 02:09:00;;;;;;;0.70;0.70;;;12.70;99.90;;;;;;5037995;28;20231;-52
2022/08/31 02:11:29;;;;;;;2.07;0.60;;;12.70;99.90;;;;;;5072491;28;20245;-50
2022/08/31 02:13:58;;;;;;;0.93;0.53;;;12.70;99.90;;;;;;5041679;28;20730;-51
2022/08/31 02:16:26;;;;;;;0.90;0.70;;;12.60;99.90;;;;;;5040472;28;20242;-52
2022/08/31 02:18:54;;;;;;;1.87;0.80;;;12.60;99.90;;;;;;5037788;28;20232;-51
2022/08/31 02:21:23;;;;;;;1.43;0.60;;;12.60;99.90;;;;;;5039915;28;20679;-51
2022/08/31 02:23:51;;;;;;;0.60;0.60;;;12.60;99.90;;;;;;5037048;28;20235;-52
2022/08/31 02:26:21;;;;;;;0.87;0.60;;;12.60;99.90;;;;;;5040926;28;20231;-53
2022/08/31 02:28:50;;;;;;;0.70;0.60;;;12.50;99.90;;;;;;5037692;28;20356;-50
2022/08/31 02:31:18;;;;;;;0.70;0.60;;;12.50;99.90;;;;;;5039381;28;20317;-52
2022/08/31 02:33:53;;;;;;;1.60;0.67;;;12.50;99.90;;;;;;5040120;28;20240;-51
2022/08/31 02:36:23;;;;;;;1.23;0.70;;;12.50;99.90;;;;;;5038888;28;20223;-49
2022/08/31 02:38:51;;;;;;;0.83;0.70;;;12.50;99.90;;;;;;5035642;28;20237;-52
2022/08/31 02:41:20;;;;;;;1.10;0.80;;;12.50;99.90;;;;;;5040138;28;20258;-50
2022/08/31 02:43:50;;;;;;;0.80;0.80;;;12.50;99.90;;;;;;5037314;28;20333;-51
2022/08/31 02:46:19;;;;;;;1.73;0.80;;;12.40;99.90;;;;;;5039457;28;20235;-49
2022/08/31 02:48:57;;;;;;;2.40;0.80;;;12.40;99.90;;;;;;5036746;28;20247;-48
2022/08/31 02:51:25;;;;;;;1.03;0.90;;;12.40;99.90;;;;;;5039638;28;20235;-51
2022/08/31 02:53:54;;;;;;;0.93;0.80;;;12.30;99.90;;;;;;5071439;28;20318;-51
2022/08/31 02:56:22;;;;;;;0.50;0.50;;;12.30;99.90;;;;;;5037165;28;20637;-52
2022/08/31 02:58:53;;;;;;;0.70;0.70;;;12.30;99.90;;;;;;5037141;28;20238;-51
2022/08/31 03:01:25;;;;;;;0.93;0.90;;;12.20;99.90;;;;;;5038539;28;20235;-50
2022/08/31 03:03:55;;;;;;;1.50;0.80;;;12.20;99.90;;;;;;5038998;28;20730;-50
2022/08/31 03:06:24;;;;;;;0.60;0.60;;;12.20;99.90;;;;;;5038337;28;20241;-49
2022/08/31 03:08:54;;;;;;;0.80;0.80;;;12.10;99.90;;;;;;5038614;28;20216;-49
2022/08/31 03:11:24;;;;;;;0.60;0.60;;;12.10;99.90;;;;;;5037194;28;20594;-51
2022/08/31 03:13:55;;;;;;;1.37;0.80;;;12.10;99.90;;;;;;5037351;28;20254;-50
2022/08/31 03:16:27;;;;;;;0.50;0.50;;;12.10;99.90;;;;;;5038989;28;20231;-49
2022/08/31 03:18:57;;;;;;;0.70;0.70;;;12.00;99.90;;;;;;5039919;28;20298;-49
2022/08/31 03:21:27;;;;;;;0.70;0.67;;;12.00;99.90;;;;;;5037894;28;20575;-50
2022/08/31 03:23:57;;;;;;;0.93;0.90;;;12.00;99.90;;;;;;5039276;28;20227;-52
2022/08/31 03:26:27;;;;;;;1.67;0.90;;;12.00;99.90;;;;;;5038923;28;20229;-51
2022/08/31 03:28:57;;;;;;;0.70;0.70;;;12.00;99.90;;;;;;5036652;28;20572;-50
2022/08/31 03:32:04;;;;;;;0.67;0.67;;;12.00;99.90;;;;;;5039355;28;20290;-49
2022/08/31 03:34:34;;;;;;;1.13;0.80;;;12.00;99.90;;;;;;5040109;28;20238;-51
2022/08/31 03:37:02;;;;;;;0.60;0.60;;;11.90;99.90;;;;;;5038160;28;20234;-51
2022/08/31 03:39:30;;;;;;;0.73;0.73;;;11.90;99.90;;;;;;5037021;28;20227;-52
2022/08/31 03:41:59;;;;;;;0.60;0.60;;;11.80;99.90;;;;;;5037672;28;20354;-51
2022/08/31 03:44:28;;;;;;;0.70;0.70;;;11.80;99.90;;;;;;5035863;28;20300;-49
2022/08/31 03:46:56;;;;;;;0.70;0.70;;;11.80;99.90;;;;;;5037188;28;20807;-51
2022/08/31 03:49:26;;;;;;;0.60;0.60;;;11.80;99.90;;;;;;5070908;28;20253;-49
2022/08/31 03:52:07;;;;;;;0.80;0.70;;;11.80;99.90;;;;;;5070878;28;20255;-50
2022/08/31 03:54:43;;;;;;;0.60;0.60;;;11.70;99.90;;;;;;5037737;28;20298;-51
2022/08/31 03:57:12;;;;;;;0.70;0.70;;;11.60;99.90;;;;;;5036834;28;20329;-49
2022/08/31 03:59:42;;;;;;;0.80;0.80;;;11.60;99.90;;;;;;5038366;28;20324;-52
2022/08/31 04:02:18;;;;;;;1.13;1.03;;;11.60;99.90;;;;;;5039265;28;20693;-50
2022/08/31 04:05:07;;;;;;;1.07;1.00;;;11.60;99.90;;;;;;5038412;28;20269;-50
2022/08/31 04:07:55;;;;;;;1.70;1.60;;;11.50;99.90;;;;;;5037631;28;20312;-52
2022/08/31 04:10:43;;;;;;;1.60;1.50;;;11.40;99.90;;;;;;5039697;28;21216;-50
2022/08/31 04:13:32;;;;;;;1.40;1.30;;;11.40;99.90;;;;;;5022984;28;20241;-52
2022/08/31 04:16:21;;;;;;;1.43;1.33;;;11.30;99.90;;;;;;5036099;28;20241;-52
2022/08/31 04:18:58;;;;;;;1.37;1.27;;;11.30;99.90;;;;;;5035602;28;20241;-51
2022/08/31 04:21:30;;;;;;;1.50;1.30;;;11.30;99.90;;;;;;5036953;28;20222;-49
2022/08/31 04:24:00;;;;;;;1.73;1.27;;;11.30;99.90;;;;;;5036250;28;20796;-49
2022/08/31 04:26:32;;;;;;;1.30;0.90;;;11.30;99.90;;;;;;5037149;28;20598;-49
2022/08/31 04:29:01;;;;;;;1.20;1.10;;;11.30;99.90;;;;;;5033695;28;20798;-51
2022/08/31 04:31:31;;;;;;;1.00;1.00;;;11.30;99.90;;;;;;5037778;28;20227;-49
2022/08/31 04:33:59;;;;;;;1.43;1.20;;;11.30;99.90;;;;;;5037043;28;20226;-51
2022/08/31 04:36:29;;;;;;;1.20;1.10;;;11.30;99.90;;;;;;5037358;28;20824;-49
2022/08/31 04:39:01;;;;;;;1.60;1.23;;;11.30;99.90;;;;;;5035711;28;20241;-49
2022/08/31 04:41:32;;;;;;;1.60;1.37;;;11.30;99.90;;;;;;5036748;28;20231;-51
2022/08/31 04:44:01;;;;;;;1.73;1.20;;;11.30;99.90;;;;;;5069660;28;20736;-49
2022/08/31 04:46:32;;;;;;;1.97;1.40;;;11.30;99.90;;;;;;5038690;28;20231;-50
2022/08/31 04:49:00;;;;;;;1.67;1.20;;;11.30;99.90;;;;;;5037670;28;21024;-52
2022/08/31 04:51:30;;;;;;;1.67;1.30;;;11.30;99.90;;;;;;5066546;28;20777;-48
2022/08/31 04:53:59;;;;;;;1.63;1.30;;;11.30;99.90;;;;;;5032654;28;20222;-50
2022/08/31 04:56:30;;;;;;;1.63;1.20;;;11.30;99.90;;;;;;5036450;28;20293;-51
2022/08/31 04:59:00;;;;;;;1.40;1.17;;;11.40;99.90;;;;;;5036403;28;20222;-52
2022/08/31 05:01:33;;;;;;;2.27;1.03;;;11.40;99.90;;;;;;5026959;28;20244;-50
2022/08/31 05:04:35;;;;;;;1.27;1.10;;;11.40;99.90;;;;;;5014947;28;20583;-50
2022/08/31 05:07:04;;;;;;;2.20;1.20;;;11.50;99.90;;;;;;5014621;28;20276;-51
2022/08/31 05:09:33;;;;;;;1.27;1.17;;;11.50;99.90;;;;;;5012849;28;20239;-50
2022/08/31 05:12:01;;;;;;;1.50;1.13;;;11.50;99.90;;;;;;5014782;28;20593;-50
2022/08/31 05:14:29;;;;;;;1.40;1.20;;;11.60;99.90;;;;;;5015841;28;20247;-49
2022/08/31 05:17:05;;;;;;;2.37;1.20;;;11.70;99.90;;;;;;5017098;28;20373;-49
2022/08/31 05:19:40;;;;;;;1.67;1.00;;;11.80;99.90;;;;;;5018048;28;20630;-51
2022/08/31 05:22:08;;;;;;;1.07;0.97;;;11.90;99.90;;;;;;5011636;28;20240;-49
2022/08/31 05:24:38;;;;;;;1.70;1.20;;;12.00;99.90;;;;;;5016683;28;20246;-50
2022/08/31 05:27:08;;;;;;;3.17;1.20;;;12.10;99.90;;;;;;5013511;28;20260;-51
2022/08/31 05:29:36;;;;;;;1.97;1.30;;;12.20;99.90;;;;;;5012453;28;20282;-50
2022/08/31 05:32:24;;;;;;;1.50;1.40;;;12.30;99.90;;;;;;5022130;28;20725;-50
2022/08/31 05:34:55;;;;;;;1.20;1.10;;;12.40;99.90;;;;;;5021075;28;20600;-49
2022/08/31 05:37:23;;;;;;;2.37;1.30;;;12.50;99.90;;;;;;5023375;28;20583;-52
2022/08/31 05:39:51;;;;;;;2.43;1.20;;;12.70;99.90;;;;;;5023596;28;20235;-51
2022/08/31 05:42:19;;;;;;;1.27;1.10;;;12.80;99.90;;;;;;5023785;28;20243;-48
2022/08/31 05:44:48;;;;;;;1.67;1.10;;;12.80;99.90;;;;;;5024783;28;20255;-52
2022/08/31 05:47:17;;;;;;;1.27;1.00;;;13.00;99.90;;;;;;5025935;28;20228;-50
2022/08/31 05:49:46;;;;;;;1.23;1.13;;;13.10;99.90;;;;;;5024192;28;20279;-51
2022/08/31 05:52:18;;;;;;;1.20;1.10;;;13.20;99.90;;;;;;5024029;28;20232;-51
2022/08/31 05:54:52;;;;;;;1.30;1.10;;;13.30;99.90;;;;;;5025689;28;20243;-50
2022/08/31 05:57:20;;;;;;;1.60;1.30;;;13.50;99.90;;;;;;5024828;28;20896;-49
2022/08/31 05:59:53;;;;;;;2.83;1.53;;;13.70;99.90;;;;;;5024924;28;20232;-49
2022/08/31 06:02:21;;;;;;;1.27;1.17;;;13.80;99.90;;;;;;5024092;28;20285;-51
2022/08/31 06:04:57;;;;;;;1.73;1.40;;;14.00;99.90;;;;;;5024262;28;20253;-53
2022/08/31 06:07:26;;;;;;;3.30;1.50;;;14.10;99.90;;;;;;5024456;28;20590;-51
2022/08/31 06:09:58;;;;;;;1.90;1.20;;;14.30;99.90;;;;;;5021910;28;20227;-52
2022/08/31 06:12:27;;;;;;;1.57;1.23;;;14.40;99.90;;;;;;5024117;28;20225;-50
2022/08/31 06:14:55;;;;;;;1.83;1.40;;;14.60;99.90;;;;;;5026549;28;20763;-52
2022/08/31 06:17:23;;;;;;;1.80;1.57;;;14.80;99.90;;;;;;5024345;28;20889;-51
2022/08/31 06:19:51;;;;;;;1.30;1.10;;;15.00;99.90;;;;;;5022481;28;20316;-52
2022/08/31 06:22:22;;;;;;;1.20;1.10;;;15.20;99.90;;;;;;5041576;28;20712;-50
2022/08/31 06:24:51;;;;;;;1.90;1.30;;;15.40;99.90;;;;;;5025799;28;20320;-50
2022/08/31 06:27:19;;;;;;;1.60;1.27;;;15.50;99.90;;;;;;5025303;28;20232;-52
2022/08/31 06:29:49;;;;;;;1.50;1.30;;;15.80;99.90;;;;;;5043237;28;20666;-50
2022/08/31 06:32:18;;;;;;;2.57;1.20;;;16.00;99.90;;;;;;5024243;28;20228;-52
2022/08/31 06:34:56;;;;;;;1.43;1.17;;;16.10;99.90;;;;;;5023985;28;20217;-52
2022/08/31 06:37:44;;;;;;;2.13;1.40;;;16.40;99.90;;;;;;5027816;28;20742;-53
2022/08/31 06:40:31;;;;;;;3.67;1.37;;;16.50;99.90;;;;;;5025433;28;20247;-53
2022/08/31 06:43:17;;;;;;;3.13;1.33;;;16.90;99.90;;;;;;5028598;28;20232;-51
2022/08/31 06:45:57;;;;;;;1.83;0.97;;;17.10;99.90;;;;;;5024176;28;20735;-52
2022/08/31 06:48:47;;;;;;;1.70;1.20;;;17.40;99.90;;;;;;5023592;28;20737;-52
2022/08/31 06:51:15;;;;;;;1.60;1.10;;;17.40;99.90;;;;;;5024281;28;20272;-50
2022/08/31 06:53:44;;;;;;;2.57;1.07;;;17.60;99.90;;;;;;5025490;28;20689;-53
2022/08/31 06:56:39;;;;;;;2.73;1.20;;;17.80;99.90;;;;;;5026430;28;20319;-52
2022/08/31 06:59:43;;;;;;;1.53;1.00;;;17.90;99.90;;;;;;4996600;28;20290;-51
2022/08/31 07:02:18;;;;;;;1.80;1.10;;;18.00;99.90;;;;;;5020425;28;20232;-52
2022/08/31 07:04:46;;;;;;;1.20;0.90;;;18.20;99.90;;;;;;5025041;28;20262;-52
2022/08/31 07:07:15;;;;;;;1.33;1.00;;;18.40;99.90;;;;;;5025740;28;20598;-53
2022/08/31 07:09:45;;;;;;;2.70;0.93;;;18.60;99.90;;;;;;5023830;28;20569;-53
2022/08/31 07:12:13;;;;;;;2.67;0.80;;;18.80;99.90;;;;;;5026329;28;20324;-52
2022/08/31 07:14:41;;;;;;;1.83;0.80;;;19.10;99.90;;;;;;5025478;28;20261;-53
2022/08/31 07:17:19;;;;;;;1.57;0.90;;;19.20;99.90;;;;;;5026314;28;20644;-52
2022/08/31 07:19:48;;;;;;;2.40;0.83;;;19.40;99.90;;;;;;5024497;28;20702;-53
2022/08/31 07:22:17;;;;;;;1.20;1.00;;;19.70;99.90;;;;;;5024147;28;20248;-53
2022/08/31 07:24:50;;;;;;;1.30;0.60;;;19.90;99.90;;;;;;5026368;28;20235;-52
2022/08/31 07:27:19;;;;;;;1.70;0.80;;;20.20;99.90;;;;;;5034294;28;20222;-54
2022/08/31 07:29:54;;;;;;;1.33;0.80;;;20.30;99.90;;;;;;5033887;28;20226;-53
2022/08/31 07:32:23;;;;;;;1.33;0.70;;;20.40;99.90;;;;;;5030892;28;20227;-53
2022/08/31 07:34:52;;;;;;;2.20;0.90;;;20.50;99.90;;;;;;5032454;28;20246;-53
2022/08/31 07:43:03;;;;;;;0.93;0.60;;;20.80;99.90;;;;;;5036590;28;20356;-53
2022/08/31 07:45:33;;;;;;;0.67;0.67;;;21.00;99.90;;;;;;5033362;28;20242;-53
2022/08/31 07:48:07;;;;;;;0.87;0.70;;;21.20;99.90;;;;;;5030496;28;20220;-53
2022/08/31 07:50:58;;;;;;;1.20;0.60;;;21.40;99.90;;;;;;5024235;28;20710;-53
2022/08/31 07:53:43;;;;;;;1.47;0.60;;;21.40;99.90;;;;;;5048910;28;20232;-53
2022/08/31 07:56:36;;;;;;;0.83;0.60;;;21.40;99.90;;;;;;5026547;28;20232;-53
2022/08/31 07:59:15;;;;;;;0.87;0.50;;;21.40;99.90;;;;;;5038610;28;20243;-53
2022/08/31 08:01:45;;;;;;;1.53;0.50;;;21.50;99.90;;;;;;5034226;28;20239;-53
2022/08/31 08:04:24;;;;;;;0.97;0.50;;;21.60;99.90;;;;;;5034723;28;20255;-53
2022/08/31 08:07:16;;;;;;;1.63;0.50;;;21.70;99.90;;;;;;5028294;28;20759;-53
2022/08/31 08:10:04;;;;;;;1.10;0.60;;;21.30;99.90;;;;;;5029719;28;20231;-53
2022/08/31 08:13:05;;;;;;;1.83;0.50;;;21.40;99.90;;;;;;5020701;28;20240;-54
2022/08/31 08:15:49;;;;;;;0.73;0.50;;;21.60;99.90;;;;;;5029103;28;20243;-51
2022/08/31 08:18:26;;;;;;;0.73;0.60;;;21.60;99.90;;;;;;5030863;28;20231;-52
2022/08/31 08:20:58;;;;;;;0.83;0.40;;;21.70;99.90;;;;;;5029174;28;20223;-51
2022/08/31 08:23:26;;;;;;;2.63;0.60;;;21.60;99.90;;;;;;5029786;28;20227;-50
2022/08/31 08:26:23;;;;;;;0.87;0.50;;;22.00;99.90;;;;;;5038410;28;20224;-52
2022/08/31 08:29:05;;;;;;;1.00;0.60;;;22.30;99.90;;;;;;5031028;28;20266;-50
2022/08/31 08:31:36;;;;;;;0.50;0.50;;;22.50;99.90;;;;;;5032010;28;20289;-51
2022/08/31 08:34:05;;;;;;;0.97;0.50;;;22.30;99.90;;;;;;5035431;28;20283;-52
2022/08/31 08:36:36;;;;;;;0.83;0.70;;;22.40;99.90;;;;;;5033599;28;20239;-51
2022/08/31 08:39:07;;;;;;;0.50;0.50;;;22.50;99.90;;;;;;5028480;28;20233;-51
2022/08/31 08:41:41;;;;;;;0.80;0.63;;;22.20;99.90;;;;;;5026925;28;20228;-53
2022/08/31 08:44:13;;;;;;;1.07;0.70;;;22.40;99.90;;;;;;5031190;28;20301;-52
2022/08/31 08:46:50;;;;;;;1.87;0.57;;;22.50;99.90;;;;;;5030081;28;20835;-51
2022/08/31 08:49:24;;;;;;;1.40;0.70;;;22.60;99.90;;;;;;5036645;28;20366;-52
2022/08/31 08:52:01;;;;;;;0.70;0.60;;;22.50;99.90;;;;;;5036362;28;20699;-51
2022/08/31 08:54:34;;;;;;;0.73;0.60;;;22.50;99.90;;;;;;5034847;28;20228;-51
2022/08/31 08:57:11;;;;;;;0.60;0.50;;;22.50;99.90;;;;;;5035995;28;20263;-52
2022/08/31 08:59:43;;;;;;;1.43;0.50;;;22.80;99.90;;;;;;5035528;28;20228;-52
2022/08/31 09:02:14;;;;;;;1.37;0.70;;;22.60;99.90;;;;;;5034677;28;20270;-50
2022/08/31 09:04:58;;;;;;;0.70;0.50;;;22.70;99.90;;;;;;5033960;28;20239;-51
2022/08/31 09:08:16;;;;;;;1.07;0.60;;;22.80;99.90;;;;;;5029155;28;20253;-51
2022/08/31 09:10:58;;;;;;;0.70;0.70;;;22.50;99.90;;;;;;5014221;28;20286;-51
2022/08/31 09:13:47;;;;;;;1.80;0.80;;;22.40;99.90;;;;;;5029375;28;20687;-51
2022/08/31 09:16:27;;;;;;;0.70;0.67;;;22.80;99.90;;;;;;5029118;28;20227;-52
2022/08/31 09:19:02;;;;;;;1.33;0.80;;;22.70;99.90;;;;;;5033325;28;20234;-50
2022/08/31 09:21:33;;;;;;;1.70;1.03;;;22.60;99.90;;;;;;5034024;28;20759;-52
2022/08/31 09:24:04;;;;;;;4.23;1.00;;;22.00;99.90;;;;;;5036126;28;20271;-52
2022/08/31 09:27:16;;;;;;;0.90;0.80;;;21.70;99.90;;;;;;5028595;28;20229;-51
2022/08/31 09:29:47;;;;;;;1.60;0.90;;;21.80;99.90;;;;;;5033618;28;21330;-51
2022/08/31 09:32:21;;;;;;;1.10;0.80;;;22.10;99.90;;;;;;5032685;28;20251;-51
2022/08/31 09:34:57;;;;;;;1.80;0.90;;;22.50;99.90;;;;;;5033514;28;20805;-51
2022/08/31 09:37:32;;;;;;;1.10;1.00;;;23.30;99.90;;;;;;5034724;28;20311;-52
2022/08/31 09:40:16;;;;;;;1.50;0.90;;;23.70;99.90;;;;;;5036480;28;20588;-51
2022/08/31 09:43:03;;;;;;;2.30;1.10;;;23.30;99.90;;;;;;5042269;28;20275;-53
2022/08/31 09:45:35;;;;;;;2.00;0.93;;;22.70;99.90;;;;;;5042822;28;20220;-52
2022/08/31 09:48:10;;;;;;;0.97;0.80;;;22.40;99.90;;;;;;5040029;28;20747;-52
2022/08/31 09:50:43;;;;;;;1.40;0.83;;;22.40;99.90;;;;;;5038293;28;20251;-51
2022/08/31 09:56:20;;;;;;;1.17;0.80;;;21.90;99.90;;;;;;5035545;28;20314;-52
2022/08/31 09:58:51;;;;;;;0.97;0.70;;;22.00;99.90;;;;;;5035920;28;20587;-52
2022/08/31 10:01:24;;;;;;;2.07;0.97;;;22.40;99.90;;;;;;5033440;28;20779;-52
2022/08/31 10:04:11;;;;;;;2.40;0.73;;;22.90;99.90;;;;;;5031604;28;20224;-52
2022/08/31 10:06:48;;;;;;;2.60;0.70;;;23.00;99.90;;;;;;5032537;28;20280;-51
2022/08/31 10:09:27;;;;;;;1.23;0.60;;;23.20;99.90;;;;;;5033044;28;20757;-52
2022/08/31 10:11:58;;;;;;;0.50;0.40;;;23.60;99.90;;;;;;5032148;28;20217;-52
2022/08/31 10:14:35;;;;;;;2.70;0.70;;;24.40;99.90;;;;;;5034578;28;20319;-52
2022/08/31 10:17:09;;;;;;;2.23;0.60;;;24.40;99.90;;;;;;5033459;28;20311;-49
2022/08/31 10:19:52;;;;;;;1.17;0.50;;;25.00;99.90;;;;;;5043607;28;20685;-53
2022/08/31 10:22:30;;;;;;;0.60;0.60;;;25.60;99.90;;;;;;5036356;28;20589;-53
2022/08/31 10:25:10;;;;;;;1.00;0.53;;;25.80;99.90;;;;;;5034949;28;20313;-53
2022/08/31 10:27:44;;;;;;;1.80;0.80;;;25.60;99.90;;;;;;5036227;28;20250;-52
2022/08/31 10:30:21;;;;;;;0.40;0.40;;;24.70;99.90;;;;;;5036999;28;20251;-53
2022/08/31 10:32:55;;;;;;;0.60;0.60;;;23.90;99.90;;;;;;5035141;28;20312;-52
2022/08/31 10:35:36;;;;;;;0.80;0.60;;;23.60;99.90;;;;;;5039477;28;20641;-51
2022/08/31 10:38:14;;;;;;;0.60;0.50;;;23.30;99.90;;;;;;5043695;28;20232;-49
2022/08/31 10:40:51;;;;;;;1.40;0.70;;;23.50;99.90;;;;;;5033541;28;20228;-52
2022/08/31 10:43:22;;;;;;;0.80;0.50;;;24.10;99.90;;;;;;5035299;28;20852;-52
2022/08/31 10:45:53;;;;;;;1.27;0.50;;;24.40;99.90;;;;;;5026028;28;20232;-52
2022/08/31 10:48:23;;;;;;;0.57;0.50;;;23.90;99.90;;;;;;5024095;28;20790;-51
2022/08/31 10:51:04;;;;;;;0.60;0.60;;;23.40;99.90;;;;;;5031385;28;20256;-52
2022/08/31 10:53:43;;;;;;;0.60;0.57;;;23.10;99.90;;;;;;5044034;28;20223;-51
2022/08/31 10:56:16;;;;;;;0.70;0.60;;;23.50;99.90;;;;;;5037012;28;20340;-52
2022/08/31 10:59:03;;;;;;;0.70;0.60;;;24.00;99.90;;;;;;5031315;28;20578;-50
2022/08/31 11:01:41;;;;;;;1.83;0.60;;;24.80;99.90;;;;;;5032840;28;20586;-52
2022/08/31 11:04:36;;;;;;;0.90;0.60;;;25.20;99.90;;;;;;5036358;28;20272;-52
2022/08/31 11:07:14;;;;;;;1.37;0.67;;;25.30;99.90;;;;;;5032316;28;20232;-52
2022/08/31 11:09:53;;;;;;;1.00;0.60;;;24.80;99.90;;;;;;5039819;28;20236;-53
2022/08/31 11:12:26;;;;;;;2.90;0.70;;;24.80;99.90;;;;;;5038356;28;20286;-52
2022/08/31 11:15:13;;;;;;;1.17;0.50;;;24.60;99.90;;;;;;5032049;28;20240;-52
2022/08/31 11:17:58;;;;;;;1.23;0.60;;;24.10;99.90;;;;;;5030269;28;20594;-51
2022/08/31 11:20:41;;;;;;;0.57;0.43;;;24.50;99.90;;;;;;5034325;28;20252;-51
2022/08/31 11:23:34;;;;;;;1.17;0.60;;;25.00;99.90;;;;;;5034507;28;20226;-52
2022/08/31 11:26:44;;;;;;;2.87;0.80;;;25.30;99.90;;;;;;5038244;28;20221;-51
2022/08/31 11:29:30;;;;;;;0.97;0.60;;;25.20;99.90;;;;;;5037951;28;20316;-52
2022/08/31 11:32:09;;;;;;;1.30;0.40;;;25.30;99.90;;;;;;5041117;28;20261;-53
2022/08/31 11:34:46;;;;;;;0.70;0.57;;;25.50;99.70;;;;;;5038910;28;20225;-53
2022/08/31 11:37:51;;;;;;;4.23;0.70;;;25.90;99.90;;;;;;5034929;28;20227;-52
2022/08/31 11:43:50;;;;;;;0.90;0.60;;;25.90;99.30;;;;;;5089459;27;20638;-53
2022/08/31 11:46:41;;;;;;;1.07;0.70;;;26.30;97.60;;;;;;5075068;28;20257;-52
2022/08/31 11:49:35;;;;;;;1.50;0.80;;;26.30;96.10;;;;;;5073411;28;20229;-52
2022/08/31 11:52:10;;;;;;;1.47;0.70;;;25.90;95.50;;;;;;5072854;28;20268;-52
2022/08/31 11:55:03;;;;;;;1.03;0.40;;;25.70;96.70;;;;;;5070390;28;20217;-52
2022/08/31 11:57:55;;;;;;;0.83;0.70;;;25.80;96.80;;;;;;5077949;28;21124;-51
2022/08/31 12:00:42;;;;;;;2.20;0.60;;;25.70;97.70;;;;;;5071544;28;20216;-51
2022/08/31 12:03:32;;;;;;;1.03;0.67;;;25.60;96.40;;;;;;5029703;28;20646;-52
2022/08/31 12:06:01;;;;;;;0.83;0.57;;;25.00;95.80;;;;;;5025132;28;20235;-53
2022/08/31 12:08:33;;;;;;;1.93;0.53;;;24.80;96.90;;;;;;5032907;28;20234;-51
2022/08/31 12:11:11;;;;;;;0.73;0.70;;;25.00;96.30;;;;;;5042705;28;20238;-52
2022/08/31 12:13:48;;;;;;;0.50;0.47;;;25.00;97.30;;;;;;5027839;28;20236;-53
2022/08/31 12:16:42;;;;;;;0.87;0.57;;;24.50;96.10;;;;;;5028373;28;20311;-53
2022/08/31 12:25:23;;;;;;;3.03;0.70;;;24.10;97.30;;;;;;5030175;28;20252;-52
2022/08/31 12:28:04;;;;;;;1.97;0.83;;;24.50;97.50;;;;;;5021726;28;20237;-51
2022/08/31 12:30:32;;;;;;;0.60;0.50;;;24.50;97.10;;;;;;5019981;28;20586;-52
2022/08/31 12:33:08;;;;;;;0.83;0.60;;;24.30;97.30;;;;;;5021341;28;20241;-52
2022/08/31 12:35:37;;;;;;;0.80;0.70;;;24.30;97.60;;;;;;5022557;28;20235;-51
2022/08/31 12:38:07;;;;;;;0.93;0.70;;;24.20;98.00;;;;;;5022879;28;20353;-52
2022/08/31 12:40:41;;;;;;;1.53;0.90;;;24.20;97.40;;;;;;5022845;28;20238;-51
2022/08/31 12:43:16;;;;;;;2.30;0.87;;;23.80;95.10;;;;;;5023744;28;20260;-52
2022/08/31 12:46:09;;;;;;;1.50;0.70;;;23.80;97.30;;;;;;5022266;28;20260;-51
2022/08/31 12:49:00;;;;;;;0.60;0.60;;;24.10;96.90;;;;;;5022876;28;20263;-52
2022/08/31 12:51:40;;;;;;;1.63;0.90;;;24.40;96.40;;;;;;5020141;28;20233;-52
2022/08/31 12:54:38;;;;;;;1.37;0.70;;;24.40;96.50;;;;;;5013007;28;21002;-51
2022/08/31 12:57:14;;;;;;;0.80;0.67;;;24.40;96.00;;;;;;5009861;28;20240;-53
2022/08/31 12:59:54;;;;;;;3.07;0.73;;;24.40;94.90;;;;;;5008551;28;20232;-52
2022/08/31 13:02:30;;;;;;;1.20;0.60;;;24.30;96.20;;;;;;5005206;28;20276;-52
2022/08/31 13:05:01;;;;;;;1.83;0.70;;;23.90;97.50;;;;;;5009445;28;20739;-52
2022/08/31 13:07:32;;;;;;;1.03;0.60;;;23.70;96.10;;;;;;5010072;28;20808;-52
2022/08/31 13:10:06;;;;;;;1.87;0.90;;;23.80;96.60;;;;;;5008044;28;20236;-52
2022/08/31 13:12:34;;;;;;;1.30;0.80;;;24.00;96.00;;;;;;5006660;28;20232;-52
2022/08/31 13:15:04;;;;;;;1.47;0.80;;;23.90;95.80;;;;;;5007457;28;20846;-52
2022/08/31 13:17:38;;;;;;;1.40;0.80;;;24.10;96.00;;;;;;5007650;28;21153;-53
2022/08/31 13:20:11;;;;;;;2.03;0.70;;;24.30;96.20;;;;;;5008079;28;20229;-53
2022/08/31 13:22:39;;;;;;;1.23;0.77;;;24.40;95.20;;;;;;5006791;28;20236;-50
2022/08/31 13:25:15;;;;;;;1.57;0.70;;;24.40;95.30;;;;;;5007848;28;20244;-53
2022/08/31 13:27:49;;;;;;;1.53;0.73;;;24.50;95.20;;;;;;5007615;28;20282;-51
2022/08/31 13:30:22;;;;;;;0.90;0.60;;;24.40;95.40;;;;;;5008263;28;20257;-52
2022/08/31 13:32:53;;;;;;;1.60;0.70;;;24.40;95.50;;;;;;5006737;28;20242;-52
2022/08/31 13:35:35;;;;;;;1.00;0.63;;;24.20;95.50;;;;;;5013647;28;20234;-50
2022/08/31 13:38:06;;;;;;;1.53;0.90;;;24.20;96.20;;;;;;5019431;28;21501;-52
2022/08/31 13:40:38;;;;;;;1.53;0.87;;;24.20;95.30;;;;;;5019665;28;20319;-50
2022/08/31 13:43:08;;;;;;;2.10;0.90;;;24.10;95.80;;;;;;5021266;28;20247;-50
2022/08/31 13:45:41;;;;;;;1.23;0.93;;;23.90;96.60;;;;;;5021018;28;20267;-52
2022/08/31 13:48:14;;;;;;;1.50;0.70;;;23.80;96.00;;;;;;5019203;28;20235;-52
2022/08/31 13:50:49;;;;;;;1.73;0.67;;;24.00;96.10;;;;;;5019296;28;20275;-52